createdAt,value
2019-03-06T00:01:07.748Z,100016.00
2019-03-06T00:03:39.592Z,100013.00
2019-03-06T00:06:16.783Z,100016.00
2019-03-06T00:08:44.643Z,100018.00
2019-03-06T00:11:16.257Z,100012.00
2019-03-06T00:13:47.728Z,100016.00
2019-03-06T00:16:19.259Z,100015.00
2019-03-06T00:18:50.724Z,100020.00
2019-03-06T00:21:22.714Z,100015.00
2019-03-06T00:23:54.224Z,100017.00
2019-03-06T00:26:26.016Z,100007.00
2019-03-06T00:28:59.149Z,100016.00
2019-03-06T00:31:32.052Z,100025.00
2019-03-06T00:34:03.556Z,100022.00
2019-03-06T00:36:39.582Z,100022.00
2019-03-06T00:39:17.756Z,100033.00
2019-03-06T00:41:54.454Z,100022.00
2019-03-06T00:44:27.364Z,100023.00
2019-03-06T00:46:58.925Z,100030.00
2019-03-06T00:49:30.505Z,100041.00
2019-03-06T00:52:01.982Z,100030.00
2019-03-06T00:54:33.514Z,100037.00
2019-03-06T00:57:05.056Z,100036.00
2019-03-06T00:59:36.636Z,100036.00
2019-03-06T01:02:09.983Z,100038.00
2019-03-06T01:04:43.779Z,100028.00
2019-03-06T01:07:15.538Z,100033.00
2019-03-06T01:09:46.974Z,100030.00
2019-03-06T01:12:20.124Z,100037.00
2019-03-06T01:14:51.584Z,100039.00
2019-03-06T01:17:23.090Z,100028.00
2019-03-06T01:19:54.634Z,100032.00
2019-03-06T01:22:26.289Z,100031.00
2019-03-06T01:24:57.800Z,100031.00
2019-03-06T01:27:29.374Z,100032.00
2019-03-06T01:30:00.828Z,100027.00
2019-03-06T01:32:32.700Z,100038.00
2019-03-06T01:35:23.182Z,100039.00
2019-03-06T01:38:06.230Z,100035.00
2019-03-06T01:40:59.599Z,100033.00
2019-03-06T01:43:44.812Z,100032.00
2019-03-06T01:46:17.922Z,100031.00
2019-03-06T01:48:50.736Z,100032.00
2019-03-06T01:51:22.542Z,100041.00
2019-03-06T01:53:54.504Z,100029.00
2019-03-06T01:56:39.047Z,100027.00
2019-03-06T01:59:26.848Z,100024.00
2019-03-06T02:02:02.521Z,100028.00
2019-03-06T02:04:34.248Z,100014.00
2019-03-06T02:07:05.990Z,100023.00
2019-03-06T02:09:40.182Z,100013.00
2019-03-06T02:12:11.764Z,100014.00
2019-03-06T02:14:43.604Z,100020.00
2019-03-06T02:17:15.380Z,100018.00
2019-03-06T02:19:48.284Z,100013.00
2019-03-06T02:22:19.816Z,100015.00
2019-03-06T02:24:55.238Z,100007.00
2019-03-06T02:27:26.672Z,100013.00
2019-03-06T02:29:58.097Z,100007.00
2019-03-06T02:32:29.536Z,100007.00
2019-03-06T02:35:00.976Z,100012.00
2019-03-06T02:37:32.515Z,99992.00
2019-03-06T02:40:04.257Z,99992.00
2019-03-06T02:42:35.753Z,99993.00
2019-03-06T02:45:10.288Z,99991.00
2019-03-06T02:47:47.861Z,99993.00
2019-03-06T02:50:19.449Z,99992.00
2019-03-06T02:52:50.962Z,99997.00
2019-03-06T02:55:23.822Z,99985.00
2019-03-06T02:58:07.789Z,99988.00
2019-03-06T03:00:56.039Z,99980.00
2019-03-06T03:03:55.485Z,99984.00
2019-03-06T03:06:35.139Z,99979.00
2019-03-06T03:09:19.378Z,99980.00
2019-03-06T03:11:50.907Z,99984.00
2019-03-06T03:14:22.551Z,99993.00
2019-03-06T03:16:54.076Z,99988.00
2019-03-06T03:19:25.690Z,99984.00
2019-03-06T03:21:57.159Z,99981.00
2019-03-06T03:24:28.662Z,99988.00
2019-03-06T03:27:00.194Z,99990.00
2019-03-06T03:29:31.712Z,99981.00
2019-03-06T03:32:03.133Z,99975.00
2019-03-06T03:34:34.868Z,99974.00
2019-03-06T03:37:06.280Z,99966.00
2019-03-06T03:39:37.799Z,99971.00
2019-03-06T03:42:09.420Z,99978.00
2019-03-06T03:44:40.904Z,99970.00
2019-03-06T03:47:12.440Z,99981.00
2019-03-06T03:49:43.899Z,99983.00
2019-03-06T03:52:15.331Z,99974.00
2019-03-06T03:54:47.856Z,99971.00
2019-03-06T03:57:19.337Z,99961.00
2019-03-06T03:59:51.360Z,99964.00
2019-03-06T04:02:22.868Z,99963.00
2019-03-06T04:04:54.310Z,99964.00
2019-03-06T04:07:25.946Z,99961.00
2019-03-06T04:09:57.381Z,99956.00
2019-03-06T04:12:28.844Z,99952.00
2019-03-06T04:15:02.567Z,99956.00
2019-03-06T04:17:34.073Z,99946.00
2019-03-06T04:20:06.184Z,99951.00
2019-03-06T04:22:37.745Z,99960.00
2019-03-06T04:25:09.367Z,99955.00
2019-03-06T04:27:40.799Z,99954.00
2019-03-06T04:30:13.569Z,99946.00
2019-03-06T04:32:45.008Z,99955.00
2019-03-06T04:35:16.672Z,99958.00
2019-03-06T04:37:48.086Z,99950.00
2019-03-06T04:40:19.890Z,99948.00
2019-03-06T04:42:51.340Z,99958.00
2019-03-06T04:45:22.839Z,99953.00
2019-03-06T04:47:54.269Z,99948.00
2019-03-06T04:50:25.757Z,99954.00
2019-03-06T04:52:57.193Z,99951.00
2019-03-06T04:55:28.643Z,99947.00
2019-03-06T04:58:00.085Z,99944.00
2019-03-06T05:00:31.641Z,99935.00
2019-03-06T05:03:03.074Z,99947.00
2019-03-06T05:05:34.535Z,99948.00
2019-03-06T05:08:05.975Z,99944.00
2019-03-06T05:10:37.608Z,99937.00
2019-03-06T05:13:09.291Z,99942.00
2019-03-06T05:15:40.793Z,99946.00
2019-03-06T05:18:34.970Z,99944.00
2019-03-06T05:21:06.467Z,99941.00
2019-03-06T05:23:38.854Z,99936.00
2019-03-06T05:26:10.337Z,99936.00
2019-03-06T05:28:42.906Z,99937.00
2019-03-06T05:31:14.533Z,99928.00
2019-03-06T05:33:45.991Z,99925.00
2019-03-06T05:37:04.734Z,99925.00
2019-03-06T05:39:36.183Z,99929.00
2019-03-06T05:42:07.633Z,99920.00
2019-03-06T05:44:39.079Z,99916.00
2019-03-06T05:47:10.580Z,99914.00
2019-03-06T05:49:42.034Z,99916.00
2019-03-06T05:52:13.634Z,99906.00
2019-03-06T05:54:45.118Z,99906.00
2019-03-06T05:57:16.648Z,99901.00
2019-03-06T05:59:48.300Z,99893.00
2019-03-06T06:02:21.158Z,99889.00
2019-03-06T06:04:52.737Z,99897.00
2019-03-06T06:07:24.278Z,99891.00
2019-03-06T06:09:55.861Z,99880.00
2019-03-06T06:12:27.364Z,99884.00
2019-03-06T06:14:58.938Z,99870.00
2019-03-06T06:17:30.413Z,99876.00
2019-03-06T06:20:01.930Z,99871.00
2019-03-06T06:22:41.316Z,99869.00
2019-03-06T06:25:14.554Z,99868.00
2019-03-06T06:27:45.978Z,99872.00
2019-03-06T06:30:18.095Z,99869.00
2019-03-06T06:32:49.622Z,99869.00
2019-03-06T06:35:21.129Z,99865.00
2019-03-06T06:37:52.842Z,99859.00
2019-03-06T06:40:24.346Z,99854.00
2019-03-06T06:42:55.993Z,99857.00
2019-03-06T06:45:33.380Z,99855.00
2019-03-06T06:48:11.646Z,99852.00
2019-03-06T06:51:34.994Z,99841.00
2019-03-06T06:54:43.434Z,99842.00
2019-03-06T06:58:04.130Z,99840.00
2019-03-06T07:01:14.433Z,99841.00
2019-03-06T07:04:57.154Z,99837.00
2019-03-06T07:08:44.166Z,99839.00
2019-03-06T07:11:37.600Z,99840.00
2019-03-06T07:14:28.054Z,99847.00
2019-03-06T07:17:07.021Z,99839.00
2019-03-06T07:20:15.710Z,99833.00
2019-03-06T07:23:08.892Z,99834.00
2019-03-06T07:25:58.272Z,99830.00
2019-03-06T07:28:51.475Z,99835.00
2019-03-06T07:31:40.438Z,99826.00
2019-03-06T07:34:24.498Z,99833.00
2019-03-06T07:37:00.187Z,99830.00
2019-03-06T07:39:50.634Z,99826.00
2019-03-06T07:42:56.386Z,99819.00
2019-03-06T07:45:50.612Z,99812.00
2019-03-06T07:48:44.014Z,99810.00
2019-03-06T07:51:33.300Z,99809.00
2019-03-06T07:54:29.708Z,99789.00
2019-03-06T07:57:20.192Z,99796.00
2019-03-06T07:59:51.658Z,99788.00
2019-03-06T08:02:30.927Z,99788.00
2019-03-06T08:05:02.482Z,99786.00
2019-03-06T08:07:34.696Z,99781.00
2019-03-06T08:10:14.974Z,99774.00
2019-03-06T08:12:58.946Z,99779.00
2019-03-06T08:15:44.353Z,99785.00
2019-03-06T08:18:26.268Z,99775.00
2019-03-06T08:21:22.586Z,99773.00
2019-03-06T08:24:04.128Z,99774.00
2019-03-06T08:26:35.625Z,99778.00
2019-03-06T08:29:07.102Z,99771.00
2019-03-06T08:31:44.561Z,99773.00
2019-03-06T08:34:16.168Z,99763.00
2019-03-06T08:36:47.839Z,99766.00
2019-03-06T08:39:22.387Z,99769.00
2019-03-06T08:41:53.872Z,99752.00
2019-03-06T08:44:26.415Z,99761.00
2019-03-06T08:47:21.995Z,99750.00
2019-03-06T08:50:12.394Z,99752.00
2019-03-06T08:53:05.151Z,99746.00
2019-03-06T08:55:58.247Z,99741.00
2019-03-06T08:58:45.545Z,99742.00
2019-03-06T09:02:00.014Z,99744.00
2019-03-06T09:04:42.151Z,99738.00
2019-03-06T09:07:33.822Z,99738.00
2019-03-06T09:10:23.962Z,99741.00
2019-03-06T09:13:29.750Z,99736.00
2019-03-06T09:16:20.512Z,99730.00
2019-03-06T09:19:06.242Z,99723.00
2019-03-06T09:21:52.033Z,99726.00
2019-03-06T09:24:40.905Z,99722.00
2019-03-06T09:27:36.771Z,99718.00
2019-03-06T09:30:24.328Z,99700.00
2019-03-06T09:33:10.836Z,99698.00
2019-03-06T09:36:07.538Z,99688.00
2019-03-06T09:38:48.455Z,99682.00
2019-03-06T09:41:41.999Z,99678.00
2019-03-06T09:44:21.975Z,99664.00
2019-03-06T09:47:05.310Z,99675.00
2019-03-06T09:49:55.739Z,99657.00
2019-03-06T09:52:45.253Z,99653.00
2019-03-06T09:55:34.492Z,99645.00
2019-03-06T09:58:41.247Z,99642.00
2019-03-06T10:01:29.138Z,99637.00
2019-03-06T10:04:18.281Z,99625.00
2019-03-06T10:07:08.666Z,99618.00
2019-03-06T10:09:44.266Z,99625.00
2019-03-06T10:12:52.001Z,99630.00
2019-03-06T10:15:51.548Z,99643.00
2019-03-06T10:18:50.983Z,99632.00
2019-03-06T10:21:22.430Z,99629.00
2019-03-06T10:23:54.121Z,99622.00
2019-03-06T10:26:25.904Z,99630.00
2019-03-06T10:28:57.525Z,99611.00
2019-03-06T10:31:29.065Z,99611.00
2019-03-06T10:34:00.629Z,99610.00
2019-03-06T10:36:32.451Z,99604.00
2019-03-06T10:39:05.197Z,99610.00
2019-03-06T10:41:38.489Z,99608.00
2019-03-06T10:44:10.083Z,99608.00
2019-03-06T10:46:41.739Z,99605.00
2019-03-06T10:49:13.274Z,99593.00
2019-03-06T10:51:44.747Z,99588.00
2019-03-06T10:54:16.210Z,99592.00
2019-03-06T10:56:47.731Z,99586.00
2019-03-06T10:59:19.191Z,99592.00
2019-03-06T11:01:51.776Z,99577.00
2019-03-06T11:04:36.882Z,99572.00
2019-03-06T11:07:08.485Z,99554.00
2019-03-06T11:09:40.319Z,99560.00
2019-03-06T11:12:12.109Z,99550.00
2019-03-06T11:14:44.656Z,99546.00
2019-03-06T11:17:16.667Z,99530.00
2019-03-06T11:19:48.649Z,99525.00
2019-03-06T11:22:42.401Z,99525.00
2019-03-06T11:25:15.407Z,99517.00
2019-03-06T11:27:48.189Z,99513.00
2019-03-06T11:30:32.313Z,99500.00
2019-03-06T11:33:23.939Z,99499.00
2019-03-06T11:35:59.509Z,99491.00
2019-03-06T11:38:31.093Z,99491.00
2019-03-06T11:41:02.706Z,99482.00
2019-03-06T11:43:34.550Z,99470.00
2019-03-06T11:46:07.951Z,99465.00
2019-03-06T11:48:41.527Z,99458.00
2019-03-06T11:51:14.921Z,99455.00
2019-03-06T11:53:46.240Z,99456.00
2019-03-06T11:56:18.146Z,99446.00
2019-03-06T11:58:50.638Z,99450.00
2019-03-06T12:01:29.597Z,99450.00
2019-03-06T12:04:00.561Z,99439.00
2019-03-06T12:06:32.093Z,99432.00
2019-03-06T12:09:05.427Z,99431.00
2019-03-06T12:11:37.738Z,99424.00
2019-03-06T12:14:10.370Z,99424.00
2019-03-06T12:16:42.111Z,99417.00
2019-03-06T12:19:13.707Z,99412.00
2019-03-06T12:21:45.432Z,99412.00
2019-03-06T12:24:17.267Z,99407.00
2019-03-06T12:26:48.810Z,99404.00
2019-03-06T12:29:20.490Z,99393.00
2019-03-06T12:31:52.519Z,99402.00
2019-03-06T12:34:24.257Z,99385.00
2019-03-06T12:36:55.883Z,99380.00
2019-03-06T12:39:31.412Z,99382.00
2019-03-06T12:42:02.991Z,99366.00
2019-03-06T12:44:34.499Z,99361.00
2019-03-06T12:47:06.259Z,99351.00
2019-03-06T12:49:40.354Z,99335.00
2019-03-06T12:52:11.930Z,99323.00
2019-03-06T12:54:44.500Z,99315.00
2019-03-06T12:57:16.206Z,99286.00
2019-03-06T12:59:48.030Z,99273.00
2019-03-06T13:02:19.529Z,99263.00
2019-03-06T13:04:53.341Z,99276.00
2019-03-06T13:07:24.466Z,99272.00
2019-03-06T13:09:56.062Z,99274.00
2019-03-06T13:12:29.232Z,99272.00
2019-03-06T13:15:02.396Z,99255.00
2019-03-06T13:17:36.372Z,99244.00
2019-03-06T13:20:09.627Z,99240.00
2019-03-06T13:22:41.819Z,99228.00
2019-03-06T13:25:15.954Z,99211.00
2019-03-06T13:27:54.386Z,99213.00
2019-03-06T13:30:22.934Z,99214.00
2019-03-06T13:33:16.324Z,99208.00
2019-03-06T13:35:47.904Z,99220.00
2019-03-06T13:38:19.426Z,99208.00
2019-03-06T13:40:50.939Z,99201.00
2019-03-06T13:43:22.467Z,99193.00
2019-03-06T13:45:53.969Z,99194.00
2019-03-06T13:48:25.399Z,99188.00
2019-03-06T13:50:56.968Z,99180.00
2019-03-06T13:53:28.658Z,99175.00
2019-03-06T13:56:00.348Z,99175.00
2019-03-06T13:58:33.504Z,99172.00
2019-03-06T14:01:10.381Z,99167.00
2019-03-06T14:03:42.086Z,99149.00
2019-03-06T14:06:13.555Z,99153.00
2019-03-06T14:08:45.087Z,99144.00
2019-03-06T14:11:17.625Z,99145.00
2019-03-06T14:13:49.151Z,99153.00
2019-03-06T14:16:20.886Z,99146.00
2019-03-06T14:18:52.465Z,99137.00
2019-03-06T14:21:25.572Z,99136.00
2019-03-06T14:23:58.544Z,99117.00
2019-03-06T14:26:30.140Z,99117.00
2019-03-06T14:29:01.664Z,99110.00
2019-03-06T14:31:33.264Z,99110.00
2019-03-06T14:34:04.770Z,99108.00
2019-03-06T14:36:47.899Z,99103.00
2019-03-06T14:39:32.380Z,99082.00
2019-03-06T14:42:04.363Z,99091.00
2019-03-06T14:44:35.864Z,99082.00
2019-03-06T14:47:07.474Z,99071.00
2019-03-06T14:49:39.213Z,99064.00
2019-03-06T14:52:10.704Z,99060.00
2019-03-06T14:54:42.277Z,99041.00
2019-03-06T14:57:13.925Z,99039.00
2019-03-06T14:59:47.625Z,99038.00
2019-03-06T15:02:19.436Z,99039.00
2019-03-06T15:04:51.027Z,99031.00
2019-03-06T15:07:22.536Z,99022.00
2019-03-06T15:09:56.914Z,99015.00
2019-03-06T15:12:28.463Z,98997.00
2019-03-06T15:14:59.914Z,98995.00
2019-03-06T15:17:31.455Z,98986.00
2019-03-06T15:20:03.208Z,98990.00
2019-03-06T15:22:38.671Z,98984.00
2019-03-06T15:25:16.149Z,98982.00
2019-03-06T15:27:47.995Z,98974.00
2019-03-06T15:30:20.899Z,98964.00
2019-03-06T15:32:52.542Z,98962.00
2019-03-06T15:35:26.100Z,98952.00
2019-03-06T15:37:57.701Z,98957.00
2019-03-06T15:40:31.089Z,98960.00
2019-03-06T15:43:02.801Z,98955.00
2019-03-06T15:45:34.558Z,98955.00
2019-03-06T15:48:06.340Z,98953.00
2019-03-06T15:50:37.793Z,98954.00
2019-03-06T15:53:09.859Z,98944.00
2019-03-06T15:55:41.423Z,98944.00
2019-03-06T15:58:13.801Z,98938.00
2019-03-06T16:00:46.676Z,98936.00
2019-03-06T16:03:18.523Z,98941.00
2019-03-06T16:05:50.037Z,98940.00
2019-03-06T16:08:24.437Z,98930.00
2019-03-06T16:10:56.200Z,98918.00
2019-03-06T16:13:27.983Z,98933.00
2019-03-06T16:16:00.740Z,98925.00
2019-03-06T16:18:33.264Z,98931.00
2019-03-06T16:21:04.730Z,98940.00
2019-03-06T16:23:36.345Z,98936.00
2019-03-06T16:26:07.824Z,98935.00
2019-03-06T16:28:39.365Z,98923.00
2019-03-06T16:31:11.154Z,98926.00
2019-03-06T16:33:44.211Z,98924.00
2019-03-06T16:36:15.698Z,98937.00
2019-03-06T16:38:47.215Z,98946.00
2019-03-06T16:41:18.853Z,98943.00
2019-03-06T16:43:50.410Z,98941.00
2019-03-06T16:46:22.109Z,98936.00
2019-03-06T16:48:53.542Z,98937.00
2019-03-06T16:51:25.058Z,98935.00
2019-03-06T16:53:56.552Z,98926.00
2019-03-06T16:56:29.398Z,98920.00
2019-03-06T16:59:01.573Z,98922.00
2019-03-06T17:01:33.387Z,98923.00
2019-03-06T17:04:06.982Z,98920.00
2019-03-06T17:06:39.237Z,98916.00
2019-03-06T17:09:25.365Z,98921.00
2019-03-06T17:11:57.668Z,98937.00
2019-03-06T17:14:29.252Z,98878.00
2019-03-06T17:17:08.051Z,98927.00
2019-03-06T17:27:12.349Z,98929.00
2019-03-06T17:29:44.236Z,98930.00
2019-03-06T17:32:19.838Z,98930.00
2019-03-06T17:34:51.368Z,98929.00
2019-03-06T17:37:22.892Z,98932.00
2019-03-06T17:39:54.388Z,98933.00
2019-03-06T17:42:25.953Z,98933.00
2019-03-06T17:44:57.479Z,98939.00
2019-03-06T17:47:28.971Z,98940.00
2019-03-06T17:50:02.061Z,98938.00
2019-03-06T17:52:33.912Z,98932.00
2019-03-06T17:55:05.911Z,98939.00
2019-03-06T17:57:39.030Z,98928.00
2019-03-06T18:00:16.817Z,98924.00
2019-03-06T18:02:45.544Z,98920.00
2019-03-06T18:05:20.698Z,98917.00
2019-03-06T18:07:53.390Z,98907.00
2019-03-06T18:10:25.278Z,98927.00
2019-03-06T18:12:57.096Z,98908.00
2019-03-06T18:15:30.480Z,98905.00
2019-03-06T18:18:02.035Z,98904.00
2019-03-06T18:20:33.680Z,98894.00
2019-03-06T18:23:05.475Z,98890.00
2019-03-06T18:25:38.350Z,98884.00
2019-03-06T18:28:10.104Z,98876.00
2019-03-06T18:30:41.879Z,98881.00
2019-03-06T18:33:13.769Z,98873.00
2019-03-06T18:35:46.378Z,98863.00
2019-03-06T18:38:20.943Z,98861.00
2019-03-06T18:40:53.070Z,98851.00
2019-03-06T18:43:25.040Z,98855.00
2019-03-06T18:45:57.064Z,98819.00
2019-03-06T18:48:29.275Z,98845.00
2019-03-06T18:51:02.032Z,98840.00
2019-03-06T18:53:33.598Z,98838.00
2019-03-06T18:56:06.210Z,98838.00
2019-03-06T18:58:37.979Z,98831.00
2019-03-06T19:01:17.932Z,98829.00
2019-03-06T19:03:51.994Z,98831.00
2019-03-06T19:06:24.170Z,98825.00
2019-03-06T19:08:57.586Z,98818.00
2019-03-06T19:11:32.536Z,98814.00
2019-03-06T19:14:15.042Z,98811.00
2019-03-06T19:20:03.675Z,98815.00
2019-03-06T19:22:36.729Z,98807.00
2019-03-06T19:25:09.894Z,98813.00
2019-03-06T19:27:41.619Z,98809.00
2019-03-06T19:30:18.845Z,98813.00
2019-03-06T19:32:50.761Z,98812.00
2019-03-06T19:35:22.922Z,98813.00
2019-03-06T19:37:54.802Z,98812.00
2019-03-06T19:40:30.142Z,98809.00
2019-03-06T19:43:03.536Z,98806.00
2019-03-06T19:45:35.539Z,98803.00
2019-03-06T19:48:08.762Z,98797.00
2019-03-06T19:50:40.613Z,98791.00
2019-03-06T19:53:12.455Z,98784.00
2019-03-06T19:55:44.635Z,98776.00
2019-03-06T19:58:17.116Z,98778.00
2019-03-06T20:00:48.965Z,98777.00
2019-03-06T20:03:22.538Z,98780.00
2019-03-06T20:06:06.799Z,98781.00
2019-03-06T20:08:40.372Z,98770.00
2019-03-06T20:11:12.334Z,98770.00
2019-03-06T20:13:44.055Z,98767.00
2019-03-06T20:16:15.985Z,98766.00
2019-03-06T20:18:47.791Z,98762.00
2019-03-06T20:21:20.296Z,98747.00
2019-03-06T20:23:52.243Z,98743.00
2019-03-06T20:26:24.190Z,98740.00
2019-03-06T20:28:56.073Z,98737.00
2019-03-06T20:31:29.362Z,98620.00
2019-03-06T20:34:03.772Z,98738.00
2019-03-06T20:36:35.728Z,98732.00
2019-03-06T20:39:11.451Z,98731.00
2019-03-06T20:41:48.427Z,98714.00
2019-03-06T20:44:20.185Z,98728.00
2019-03-06T20:46:53.169Z,98722.00
2019-03-06T20:49:27.001Z,98705.00
2019-03-06T20:51:59.237Z,98711.00
2019-03-06T20:54:31.300Z,98700.00
2019-03-06T20:57:03.819Z,98700.00
2019-03-06T20:59:38.992Z,98695.00
2019-03-06T21:02:12.807Z,98689.00
2019-03-06T21:04:50.387Z,98715.00
2019-03-06T21:07:27.432Z,98685.00
2019-03-06T21:09:59.463Z,98675.00
2019-03-06T21:12:37.706Z,98679.00
2019-03-06T21:15:11.471Z,98676.00
2019-03-06T21:17:46.449Z,98663.00
2019-03-06T21:20:19.555Z,98667.00
2019-03-06T21:22:53.321Z,98663.00
2019-03-06T21:25:28.077Z,98661.00
2019-03-06T21:27:59.657Z,98661.00
2019-03-06T21:30:35.867Z,98668.00
2019-03-06T21:33:07.841Z,98655.00
2019-03-06T21:35:44.308Z,98666.00
2019-03-06T21:38:17.291Z,98658.00
2019-03-06T21:40:51.107Z,98661.00
2019-03-06T21:43:22.669Z,98656.00
2019-03-06T21:45:54.440Z,98656.00
2019-03-06T21:48:28.452Z,98663.00
2019-03-06T21:51:05.418Z,98659.00
2019-03-06T21:53:39.066Z,98653.00
2019-03-06T21:56:11.560Z,98640.00
2019-03-06T21:58:43.938Z,98655.00
2019-03-06T22:01:16.509Z,98650.00
2019-03-06T22:03:54.086Z,98656.00
2019-03-06T22:06:26.781Z,98636.00
2019-03-06T22:08:58.649Z,98641.00
2019-03-06T22:11:30.353Z,98637.00
2019-03-06T22:14:01.904Z,98638.00
2019-03-06T22:16:39.458Z,98636.00
2019-03-06T22:19:17.845Z,98631.00
2019-03-06T22:21:49.660Z,98625.00
2019-03-06T22:24:22.824Z,98629.00
2019-03-06T22:26:56.890Z,98617.00
2019-03-06T22:29:30.122Z,98617.00
2019-03-06T22:32:04.078Z,98614.00
2019-03-06T22:34:37.180Z,98617.00
2019-03-06T22:37:13.123Z,98605.00
2019-03-06T22:39:46.957Z,98615.00
2019-03-06T22:42:21.827Z,98616.00
2019-03-06T22:44:56.713Z,98611.00
2019-03-06T22:48:33.356Z,98611.00
2019-03-06T22:51:29.793Z,98609.00
2019-03-06T22:54:01.664Z,98600.00
2019-03-06T22:56:33.360Z,98596.00
2019-03-06T22:59:07.902Z,98595.00
2019-03-06T23:01:41.511Z,98605.00
2019-03-06T23:04:13.066Z,98595.00
2019-03-06T23:06:44.562Z,98587.00
2019-03-06T23:09:16.597Z,98570.00
2019-03-06T23:11:48.256Z,98570.00
2019-03-06T23:14:19.790Z,98579.00
2019-03-06T23:16:52.244Z,98579.00
2019-03-06T23:19:23.757Z,98570.00
2019-03-06T23:21:55.313Z,98569.00
2019-03-06T23:24:26.799Z,98567.00
2019-03-06T23:26:58.297Z,98567.00
2019-03-06T23:29:29.934Z,98562.00
2019-03-06T23:32:01.415Z,98548.00
2019-03-06T23:34:43.451Z,98560.00
2019-03-06T23:37:15.023Z,98547.00
2019-03-06T23:39:49.675Z,98550.00
2019-03-06T23:42:21.139Z,98555.00
2019-03-06T23:44:52.631Z,98547.00
2019-03-06T23:47:24.074Z,98555.00
2019-03-06T23:49:55.551Z,98547.00
2019-03-06T23:52:31.875Z,98542.00
2019-03-06T23:55:03.344Z,98536.00
2019-03-06T23:57:35.225Z,98536.00
